createdAt,value
2023-09-23T00:01:16.421Z,17.37
2023-09-23T00:04:02.188Z,17.34
2023-09-23T00:06:49.970Z,17.31
2023-09-23T00:09:37.002Z,17.27
2023-09-23T00:12:22.203Z,17.22
2023-09-23T00:15:08.341Z,17.19
2023-09-23T00:17:55.668Z,17.14
2023-09-23T00:20:41.513Z,17.12
2023-09-23T00:23:26.025Z,17.10
2023-09-23T00:26:12.094Z,17.08
2023-09-23T00:28:56.838Z,17.12
2023-09-23T00:31:44.051Z,17.12
2023-09-23T00:34:29.676Z,17.11
2023-09-23T00:37:15.536Z,17.10
2023-09-23T00:40:01.572Z,17.10
2023-09-23T00:42:49.113Z,17.09
2023-09-23T00:45:35.041Z,17.09
2023-09-23T00:48:21.352Z,17.08
2023-09-23T00:51:07.919Z,17.04
2023-09-23T00:53:52.915Z,17.05
2023-09-23T00:56:38.258Z,17.03
2023-09-23T00:59:24.196Z,17.02
2023-09-23T01:02:10.138Z,17.00
2023-09-23T01:04:56.075Z,16.97
2023-09-23T01:07:40.778Z,16.95
2023-09-23T01:10:26.014Z,16.95
2023-09-23T01:13:11.542Z,16.95
2023-09-23T01:15:57.578Z,16.94
2023-09-23T01:18:46.005Z,16.93
2023-09-23T01:21:32.299Z,16.95
2023-09-23T01:24:18.321Z,16.95
2023-09-23T01:27:04.408Z,16.93
2023-09-23T01:29:53.248Z,16.90
2023-09-23T01:32:46.603Z,16.78
2023-09-23T01:35:32.021Z,16.75
2023-09-23T01:38:17.109Z,16.73
2023-09-23T01:41:04.591Z,16.71
2023-09-23T01:43:49.764Z,16.73
2023-09-23T01:46:35.814Z,16.72
2023-09-23T01:49:21.012Z,16.71
2023-09-23T01:52:06.098Z,16.71
2023-09-23T01:54:51.221Z,16.66
2023-09-23T01:57:36.637Z,16.65
2023-09-23T02:00:46.553Z,16.65
2023-09-23T02:03:32.105Z,16.62
2023-09-23T02:06:18.001Z,16.59
2023-09-23T02:09:03.104Z,16.59
2023-09-23T02:11:48.731Z,16.57
2023-09-23T02:14:33.807Z,16.55
2023-09-23T02:17:20.708Z,16.54
2023-09-23T02:20:20.281Z,16.51
2023-09-23T02:23:06.567Z,16.50
2023-09-23T02:25:52.336Z,16.50
2023-09-23T02:28:37.467Z,16.52
2023-09-23T02:31:22.334Z,16.50
2023-09-23T02:34:10.674Z,16.49
2023-09-23T02:36:55.824Z,16.37
2023-09-23T02:39:42.505Z,16.34
2023-09-23T02:42:28.580Z,16.27
2023-09-23T02:45:15.546Z,16.23
2023-09-23T02:48:00.498Z,16.15
2023-09-23T02:50:45.438Z,16.15
2023-09-23T02:53:31.421Z,16.12
2023-09-23T02:56:16.790Z,16.08
2023-09-23T02:59:12.152Z,16.06
2023-09-23T03:01:58.638Z,16.08
2023-09-23T03:04:44.348Z,16.10
2023-09-23T03:07:33.739Z,16.13
2023-09-23T03:10:20.376Z,16.15
2023-09-23T03:13:12.037Z,16.17
2023-09-23T03:16:09.781Z,16.21
2023-09-23T03:19:10.505Z,16.23
2023-09-23T03:21:56.979Z,16.23
2023-09-23T03:24:41.761Z,16.23
2023-09-23T03:27:28.932Z,16.24
2023-09-23T03:30:14.396Z,16.20
2023-09-23T03:33:00.638Z,16.18
2023-09-23T03:35:45.748Z,16.16
2023-09-23T03:38:32.932Z,16.12
2023-09-23T03:41:18.218Z,16.13
2023-09-23T03:44:07.962Z,16.09
2023-09-23T03:46:54.484Z,16.09
2023-09-23T03:49:41.059Z,16.06
2023-09-23T03:52:26.247Z,16.09
2023-09-23T03:55:14.337Z,16.10
2023-09-23T03:58:01.428Z,16.11
2023-09-23T04:00:46.424Z,16.18
2023-09-23T04:03:34.691Z,16.25
2023-09-23T04:06:20.136Z,16.27
2023-09-23T04:09:10.367Z,16.30
2023-09-23T04:11:55.428Z,16.33
2023-09-23T04:14:40.393Z,16.36
2023-09-23T04:17:25.806Z,16.40
2023-09-23T04:20:11.394Z,16.47
2023-09-23T04:22:56.567Z,16.51
2023-09-23T04:25:42.796Z,16.66
2023-09-23T04:28:27.864Z,16.77
2023-09-23T04:31:13.678Z,16.92
2023-09-23T04:33:59.646Z,17.09
2023-09-23T04:36:47.383Z,17.27
2023-09-23T04:39:32.578Z,17.39
2023-09-23T04:42:18.257Z,17.49
2023-09-23T04:45:04.221Z,17.60
2023-09-23T04:47:52.289Z,17.66
2023-09-23T04:50:40.268Z,17.67
2023-09-23T04:53:25.419Z,17.72
2023-09-23T04:56:10.893Z,17.72
2023-09-23T04:58:59.146Z,17.74
2023-09-23T05:01:45.092Z,17.77
2023-09-23T05:04:32.036Z,17.87
2023-09-23T05:07:17.094Z,17.98
2023-09-23T05:10:02.334Z,18.10
2023-09-23T05:12:47.330Z,18.26
2023-09-23T05:15:32.388Z,18.43
2023-09-23T05:18:18.124Z,18.62
2023-09-23T05:21:03.059Z,18.79
2023-09-23T05:23:50.130Z,18.94
2023-09-23T05:26:34.930Z,19.11
2023-09-23T05:29:21.255Z,19.25
2023-09-23T05:32:06.234Z,19.40
2023-09-23T05:34:53.547Z,19.43
2023-09-23T05:37:40.031Z,19.51
2023-09-23T05:40:27.925Z,19.49
2023-09-23T05:43:12.951Z,19.47
2023-09-23T05:45:57.927Z,19.44
2023-09-23T05:48:42.864Z,19.43
2023-09-23T05:51:27.931Z,19.42
2023-09-23T05:54:12.818Z,19.49
2023-09-23T05:56:57.837Z,19.65
2023-09-23T05:59:43.012Z,19.84
2023-09-23T06:02:27.869Z,20.07
2023-09-23T06:05:14.412Z,20.32
2023-09-23T06:07:59.246Z,20.55
2023-09-23T06:10:44.168Z,20.86
2023-09-23T06:13:29.064Z,21.06
2023-09-23T06:16:17.112Z,21.21
2023-09-23T06:19:02.286Z,21.48
2023-09-23T06:21:48.011Z,21.58
2023-09-23T06:24:32.521Z,21.73
2023-09-23T06:27:17.729Z,21.97
2023-09-23T06:30:03.412Z,22.16
2023-09-23T06:32:48.636Z,22.33
2023-09-23T06:35:33.498Z,22.58
2023-09-23T06:38:18.652Z,22.83
2023-09-23T06:41:03.791Z,23.06
2023-09-23T06:43:49.080Z,23.30
2023-09-23T06:46:34.584Z,23.40
2023-09-23T06:49:19.778Z,23.46
2023-09-23T06:52:04.408Z,23.61
2023-09-23T06:54:49.692Z,23.76
2023-09-23T06:57:37.271Z,24.01
2023-09-23T07:00:22.159Z,24.13
2023-09-23T07:03:07.805Z,24.21
2023-09-23T07:05:53.359Z,24.26
2023-09-23T07:08:38.180Z,24.48
2023-09-23T07:11:24.262Z,24.66
2023-09-23T07:14:09.311Z,24.90
2023-09-23T07:16:56.394Z,25.18
2023-09-23T07:19:41.532Z,25.36
2023-09-23T07:22:26.422Z,25.57
2023-09-23T07:25:11.552Z,25.81
2023-09-23T07:28:00.191Z,26.07
2023-09-23T07:30:45.080Z,26.21
2023-09-23T07:33:30.182Z,26.44
2023-09-23T07:36:15.385Z,26.71
2023-09-23T07:39:00.288Z,26.71
2023-09-23T07:41:45.173Z,26.66
2023-09-23T07:44:30.213Z,26.69
2023-09-23T07:47:15.388Z,26.87
2023-09-23T07:50:00.524Z,27.00
2023-09-23T07:52:45.504Z,27.10
2023-09-23T07:55:30.848Z,27.17
2023-09-23T07:58:16.017Z,27.43
2023-09-23T08:01:01.077Z,27.68
2023-09-23T08:03:46.156Z,27.83
2023-09-23T08:06:31.055Z,27.83
2023-09-23T08:09:16.055Z,27.77
2023-09-23T08:12:01.248Z,28.03
2023-09-23T08:14:46.130Z,28.16
2023-09-23T08:17:32.019Z,27.91
2023-09-23T08:20:24.530Z,27.90
2023-09-23T08:23:09.603Z,28.00
2023-09-23T08:25:56.742Z,28.23
2023-09-23T08:28:42.853Z,28.48
2023-09-23T08:31:27.883Z,28.77
2023-09-23T08:34:13.104Z,29.23
2023-09-23T08:36:57.996Z,29.60
2023-09-23T08:39:43.305Z,29.93
2023-09-23T08:42:28.266Z,29.94
2023-09-23T08:45:14.031Z,30.15
2023-09-23T08:47:59.493Z,30.35
2023-09-23T08:50:47.342Z,30.43
2023-09-23T08:53:39.383Z,30.46
2023-09-23T08:56:24.289Z,30.52
2023-09-23T08:59:11.949Z,30.37
2023-09-23T09:01:56.866Z,30.42
2023-09-23T09:04:42.297Z,30.32
2023-09-23T09:07:34.896Z,30.30
2023-09-23T09:10:20.029Z,30.48
2023-09-23T09:13:06.260Z,30.81
2023-09-23T09:15:52.071Z,30.68
2023-09-23T09:18:37.794Z,30.39
2023-09-23T09:21:22.796Z,30.28
2023-09-23T09:24:09.609Z,30.35
2023-09-23T09:26:55.035Z,30.74
2023-09-23T09:29:43.879Z,30.71
2023-09-23T09:32:30.611Z,30.89
2023-09-23T09:35:19.380Z,30.80
2023-09-23T09:38:17.432Z,30.91
2023-09-23T09:41:05.251Z,30.68
2023-09-23T09:43:51.550Z,30.56
2023-09-23T09:46:40.083Z,30.45
2023-09-23T09:49:26.683Z,30.84
2023-09-23T09:52:13.830Z,30.94
2023-09-23T09:55:02.728Z,31.32
2023-09-23T09:57:51.364Z,31.61
2023-09-23T10:00:43.903Z,31.91
2023-09-23T10:03:29.310Z,32.24
2023-09-23T10:06:23.070Z,32.52
2023-09-23T10:09:15.048Z,32.81
2023-09-23T10:12:02.844Z,33.04
2023-09-23T10:14:55.243Z,33.37
2023-09-23T10:17:43.891Z,33.21
2023-09-23T10:20:33.763Z,33.03
2023-09-23T10:23:20.903Z,33.02
2023-09-23T10:26:16.948Z,33.30
2023-09-23T10:29:04.481Z,33.52
2023-09-23T10:31:49.638Z,33.53
2023-09-23T10:34:47.810Z,33.69
2023-09-23T10:37:33.775Z,34.05
2023-09-23T10:40:20.800Z,33.78
2023-09-23T10:43:08.445Z,34.10
2023-09-23T10:45:54.523Z,33.82
2023-09-23T10:48:40.817Z,33.89
2023-09-23T10:51:26.737Z,34.05
2023-09-23T10:54:13.964Z,34.10
2023-09-23T10:57:00.747Z,33.68
2023-09-23T10:59:46.601Z,33.76
2023-09-23T11:02:31.719Z,34.06
2023-09-23T11:05:17.197Z,34.77
2023-09-23T11:08:02.955Z,34.96
2023-09-23T11:10:49.896Z,34.65
2023-09-23T11:13:34.994Z,34.24
2023-09-23T11:16:22.806Z,34.47
2023-09-23T11:19:08.126Z,34.95
2023-09-23T11:21:53.164Z,35.24
2023-09-23T11:24:40.232Z,35.04
2023-09-23T11:27:26.065Z,34.24
2023-09-23T11:30:11.849Z,33.23
2023-09-23T11:32:57.043Z,32.60
2023-09-23T11:35:52.004Z,33.11
2023-09-23T11:38:39.092Z,32.79
2023-09-23T11:41:24.065Z,31.88
2023-09-23T11:44:10.535Z,31.27
2023-09-23T11:46:55.868Z,30.76
2023-09-23T11:49:41.053Z,30.61
2023-09-23T11:52:26.082Z,30.63
2023-09-23T11:55:13.032Z,30.93
2023-09-23T11:57:58.483Z,31.40
2023-09-23T12:00:43.352Z,31.76
2023-09-23T12:03:28.316Z,32.17
2023-09-23T12:06:13.333Z,32.50
2023-09-23T12:08:58.250Z,32.94
2023-09-23T12:11:43.137Z,33.39
2023-09-23T12:14:28.076Z,33.77
2023-09-23T12:17:16.677Z,34.07
2023-09-23T12:20:03.331Z,34.04
2023-09-23T12:22:48.519Z,34.01
2023-09-23T12:25:33.246Z,34.37
2023-09-23T12:28:18.555Z,34.73
2023-09-23T12:31:03.430Z,34.96
2023-09-23T12:33:48.176Z,35.05
2023-09-23T12:36:33.400Z,35.22
2023-09-23T12:39:18.465Z,35.26
2023-09-23T12:42:03.538Z,35.63
2023-09-23T12:44:48.358Z,35.76
2023-09-23T12:50:21.944Z,35.42
2023-09-23T12:53:06.766Z,35.41
2023-09-23T12:55:51.874Z,35.37
2023-09-23T12:58:37.586Z,35.89
2023-09-23T13:01:22.636Z,35.71
2023-09-23T13:04:07.562Z,35.45
2023-09-23T13:06:52.696Z,35.34
2023-09-23T13:09:37.456Z,35.30
2023-09-23T13:12:22.699Z,35.40
2023-09-23T13:15:08.518Z,35.73
2023-09-23T13:17:54.048Z,35.74
2023-09-23T13:20:39.473Z,35.93
2023-09-23T13:23:24.388Z,36.03
2023-09-23T13:26:09.334Z,35.85
2023-09-23T13:28:54.489Z,35.25
2023-09-23T13:31:39.666Z,34.61
2023-09-23T13:34:25.183Z,33.92
2023-09-23T13:37:10.022Z,33.44
2023-09-23T13:39:57.606Z,32.95
2023-09-23T13:42:42.431Z,32.62
2023-09-23T13:45:27.601Z,32.08
2023-09-23T13:48:12.561Z,31.36
2023-09-23T13:50:57.470Z,30.75
2023-09-23T13:53:42.453Z,30.75
2023-09-23T13:56:27.265Z,30.60
2023-09-23T13:59:12.919Z,30.59
2023-09-23T14:01:58.338Z,30.69
2023-09-23T14:04:43.453Z,30.85
2023-09-23T14:07:28.378Z,30.79
2023-09-23T14:10:21.372Z,30.82
2023-09-23T14:13:07.245Z,31.10
2023-09-23T14:15:52.275Z,31.45
2023-09-23T14:18:37.282Z,31.71
2023-09-23T14:21:22.266Z,31.82
2023-09-23T14:24:08.006Z,31.81
2023-09-23T14:26:52.980Z,31.94
2023-09-23T14:29:38.312Z,31.77
2023-09-23T14:32:23.158Z,31.62
2023-09-23T14:35:08.569Z,31.52
2023-09-23T14:37:53.781Z,31.33
2023-09-23T14:40:38.895Z,30.86
2023-09-23T14:43:23.778Z,30.36
2023-09-23T14:46:08.697Z,29.73
2023-09-23T14:48:53.847Z,29.18
2023-09-23T14:51:39.031Z,28.72
2023-09-23T14:54:24.032Z,28.36
2023-09-23T14:57:09.206Z,28.06
2023-09-23T14:59:54.161Z,27.79
2023-09-23T15:02:39.340Z,27.56
2023-09-23T15:05:24.389Z,27.36
2023-09-23T15:08:09.138Z,27.17
2023-09-23T15:10:54.195Z,26.98
2023-09-23T15:13:39.575Z,26.81
2023-09-23T15:16:24.848Z,26.67
2023-09-23T15:19:10.053Z,26.50
2023-09-23T15:21:55.236Z,26.36
2023-09-23T15:24:44.317Z,26.24
2023-09-23T15:27:29.468Z,26.15
2023-09-23T15:30:14.713Z,26.03
2023-09-23T15:32:59.710Z,25.92
2023-09-23T15:35:45.493Z,25.78
2023-09-23T15:38:30.631Z,25.65
2023-09-23T15:41:15.752Z,25.45
2023-09-23T15:44:00.593Z,25.27
2023-09-23T15:46:45.669Z,25.04
2023-09-23T15:49:31.079Z,24.85
2023-09-23T15:52:29.089Z,24.68
2023-09-23T15:55:16.174Z,24.53
2023-09-23T15:58:01.802Z,24.35
2023-09-23T16:00:47.040Z,24.17
2023-09-23T16:03:33.352Z,23.99
2023-09-23T16:06:18.452Z,23.79
2023-09-23T16:09:04.484Z,23.62
2023-09-23T16:11:49.238Z,23.45
2023-09-23T16:14:35.875Z,23.34
2023-09-23T16:17:21.101Z,23.21
2023-09-23T16:20:06.877Z,23.06
2023-09-23T16:22:52.772Z,22.99
2023-09-23T16:25:38.328Z,22.88
2023-09-23T16:28:24.178Z,22.80
2023-09-23T16:31:08.958Z,22.74
2023-09-23T16:33:54.898Z,22.68
2023-09-23T16:36:41.671Z,22.64
2023-09-23T16:39:26.453Z,22.60
2023-09-23T16:42:11.431Z,22.58
2023-09-23T16:44:56.415Z,22.51
2023-09-23T16:47:41.902Z,22.45
2023-09-23T16:50:26.762Z,22.36
2023-09-23T16:53:12.013Z,22.30
2023-09-23T16:55:56.946Z,22.26
2023-09-23T16:58:41.834Z,22.20
2023-09-23T17:01:27.218Z,22.18
2023-09-23T17:04:12.229Z,22.17
2023-09-23T17:06:57.366Z,22.13
2023-09-23T17:09:42.819Z,22.08
2023-09-23T17:12:28.137Z,21.99
2023-09-23T17:15:13.176Z,21.93
2023-09-23T17:17:57.710Z,21.87
2023-09-23T17:20:43.378Z,21.79
2023-09-23T17:23:28.451Z,21.77
2023-09-23T17:26:13.601Z,21.70
2023-09-23T17:28:59.914Z,21.71
2023-09-23T17:31:46.355Z,21.67
2023-09-23T17:34:33.653Z,21.63
2023-09-23T17:37:18.870Z,21.58
2023-09-23T17:40:04.232Z,21.52
2023-09-23T17:42:49.431Z,21.51
2023-09-23T17:45:36.568Z,21.46
2023-09-23T17:48:22.296Z,21.39
2023-09-23T17:51:07.632Z,21.35
2023-09-23T17:53:52.891Z,21.27
2023-09-23T17:56:38.316Z,21.19
2023-09-23T17:59:23.217Z,21.13
2023-09-23T18:02:09.371Z,21.12
2023-09-23T18:04:54.034Z,20.97
2023-09-23T18:07:39.446Z,20.87
2023-09-23T18:10:24.276Z,20.81
2023-09-23T18:13:09.219Z,20.74
2023-09-23T18:15:54.440Z,20.67
2023-09-23T18:18:43.922Z,20.67
2023-09-23T18:21:28.700Z,20.60
2023-09-23T18:24:13.861Z,20.50
2023-09-23T18:26:58.954Z,20.46
2023-09-23T18:29:43.950Z,20.42
2023-09-23T18:32:29.324Z,20.39
2023-09-23T18:35:14.329Z,20.36
2023-09-23T18:37:59.416Z,20.35
2023-09-23T18:40:45.060Z,20.33
2023-09-23T18:43:30.276Z,20.29
2023-09-23T18:46:15.769Z,20.27
2023-09-23T18:49:01.168Z,20.21
2023-09-23T18:51:46.148Z,20.11
2023-09-23T18:54:32.250Z,20.11
2023-09-23T18:57:17.150Z,20.07
2023-09-23T19:00:01.875Z,20.07
2023-09-23T19:02:47.412Z,20.01
2023-09-23T19:05:32.445Z,19.95
2023-09-23T19:08:17.719Z,19.90
2023-09-23T19:11:03.527Z,19.85
2023-09-23T19:13:49.105Z,19.78
2023-09-23T19:16:34.220Z,19.73
2023-09-23T19:19:19.195Z,19.68
2023-09-23T19:22:04.847Z,19.63
2023-09-23T19:24:51.059Z,19.57
2023-09-23T19:27:36.653Z,19.56
2023-09-23T19:30:21.498Z,19.52
2023-09-23T19:33:06.440Z,19.46
2023-09-23T19:35:51.851Z,19.41
2023-09-23T19:38:37.215Z,19.38
2023-09-23T19:41:22.627Z,19.36
2023-09-23T19:44:07.670Z,19.35
2023-09-23T19:46:52.890Z,19.30
2023-09-23T19:49:37.853Z,19.28
2023-09-23T19:52:22.956Z,19.22
2023-09-23T19:55:08.629Z,19.21
2023-09-23T19:57:53.563Z,19.21
2023-09-23T20:00:38.573Z,19.20
2023-09-23T20:03:23.971Z,19.20
2023-09-23T20:06:09.826Z,19.16
2023-09-23T20:08:54.807Z,19.11
2023-09-23T20:11:39.702Z,19.10
2023-09-23T20:14:24.763Z,19.06
2023-09-23T20:17:11.623Z,19.03
2023-09-23T20:19:56.660Z,19.03
2023-09-23T20:22:43.010Z,19.00
2023-09-23T20:25:29.130Z,19.01
2023-09-23T20:28:14.224Z,18.99
2023-09-23T20:30:59.876Z,18.99
2023-09-23T20:33:45.015Z,18.99
2023-09-23T20:36:30.344Z,18.97
2023-09-23T20:39:16.067Z,18.93
2023-09-23T20:42:01.251Z,18.91
2023-09-23T20:44:46.029Z,18.88
2023-09-23T20:47:31.587Z,18.81
2023-09-23T20:50:16.474Z,18.79
2023-09-23T20:53:01.458Z,18.76
2023-09-23T20:55:46.405Z,18.73
2023-09-23T20:58:31.387Z,18.71
2023-09-23T21:01:16.596Z,18.69
2023-09-23T21:04:01.511Z,18.65
2023-09-23T21:06:46.510Z,18.63
2023-09-23T21:09:31.320Z,18.62
2023-09-23T21:12:16.447Z,18.61
2023-09-23T21:15:01.423Z,18.59
2023-09-23T21:17:46.974Z,18.58
2023-09-23T21:20:32.319Z,18.56
2023-09-23T21:23:16.966Z,18.49
2023-09-23T21:26:02.271Z,18.46
2023-09-23T21:28:48.001Z,18.43
2023-09-23T21:31:33.832Z,18.42
2023-09-23T21:34:18.686Z,18.43
2023-09-23T21:37:03.744Z,18.42
2023-09-23T21:39:48.756Z,18.36
2023-09-23T21:42:34.038Z,18.35
2023-09-23T21:45:19.179Z,18.32
2023-09-23T21:48:04.393Z,18.30
2023-09-23T21:50:58.041Z,18.31
2023-09-23T21:53:43.208Z,18.27
2023-09-23T21:56:41.570Z,18.25
2023-09-23T21:59:28.946Z,18.22
2023-09-23T22:02:14.390Z,18.21
2023-09-23T22:04:59.346Z,18.20
2023-09-23T22:07:44.427Z,18.17
2023-09-23T22:10:29.650Z,18.15
2023-09-23T22:13:14.599Z,18.14
2023-09-23T22:15:59.653Z,18.11
2023-09-23T22:18:45.230Z,18.11
2023-09-23T22:21:32.250Z,18.10
2023-09-23T22:24:17.225Z,18.08
2023-09-23T22:27:04.897Z,18.07
2023-09-23T22:29:50.112Z,18.08
2023-09-23T22:32:34.742Z,18.06
2023-09-23T22:35:19.749Z,18.03
2023-09-23T22:38:04.626Z,17.99
2023-09-23T22:40:50.366Z,18.03
2023-09-23T22:43:34.967Z,17.90
2023-09-23T22:46:20.097Z,17.87
2023-09-23T22:49:06.096Z,17.90
2023-09-23T22:51:52.600Z,17.89
2023-09-23T22:54:37.648Z,17.90
2023-09-23T22:57:22.713Z,17.90
2023-09-23T23:00:12.788Z,17.89
2023-09-23T23:02:58.107Z,17.85
2023-09-23T23:05:43.660Z,17.87
2023-09-23T23:08:28.828Z,17.83
2023-09-23T23:11:14.052Z,17.82
2023-09-23T23:13:58.924Z,17.75
2023-09-23T23:16:44.186Z,17.74
2023-09-23T23:19:28.999Z,17.71
2023-09-23T23:22:14.135Z,17.69
2023-09-23T23:24:59.212Z,17.61
2023-09-23T23:27:48.002Z,17.62
2023-09-23T23:30:33.068Z,17.57
2023-09-23T23:33:17.943Z,17.51
2023-09-23T23:36:03.233Z,17.50
2023-09-23T23:38:48.385Z,17.45
2023-09-23T23:41:33.816Z,17.46
2023-09-23T23:44:20.623Z,17.49
2023-09-23T23:47:07.495Z,17.52
2023-09-23T23:49:54.515Z,17.53
2023-09-23T23:52:39.723Z,17.55
2023-09-23T23:55:26.809Z,17.46
2023-09-23T23:58:13.313Z,17.47
